createdAt,value
2022-12-11T00:00:00.567Z,95.7
2022-12-11T00:10:00.614Z,95.8
2022-12-11T00:20:00.770Z,95.8
2022-12-11T00:30:00.565Z,95.5
2022-12-11T00:40:00.428Z,95.2
2022-12-11T00:50:00.448Z,95.2
2022-12-11T01:00:01.029Z,94.9
2022-12-11T01:10:01.570Z,94.9
2022-12-11T01:20:00.349Z,94.5
2022-12-11T01:30:00.310Z,94.0
2022-12-11T01:40:00.293Z,93.7
2022-12-11T01:50:00.247Z,94.2
2022-12-11T02:00:00.314Z,94.5
2022-12-11T02:10:00.236Z,94.4
2022-12-11T02:20:00.211Z,95.0
2022-12-11T02:30:00.258Z,94.5
2022-12-11T02:40:00.456Z,93.5
2022-12-11T02:50:00.251Z,93.3
2022-12-11T03:00:00.265Z,93.2
2022-12-11T03:10:00.258Z,93.1
2022-12-11T03:20:00.426Z,92.5
2022-12-11T03:30:00.261Z,92.8
2022-12-11T03:40:00.242Z,92.8
2022-12-11T03:50:00.248Z,92.1
2022-12-11T04:00:00.893Z,91.3
2022-12-11T04:10:00.747Z,92.3
2022-12-11T04:20:00.290Z,92.4
2022-12-11T04:30:00.263Z,92.8
2022-12-11T04:40:00.282Z,93.4
2022-12-11T04:50:00.257Z,93.5
2022-12-11T05:00:00.308Z,93.1
2022-12-11T05:10:00.255Z,92.9
2022-12-11T05:20:00.258Z,93.3
2022-12-11T05:30:00.228Z,93.3
2022-12-11T05:40:00.274Z,93.1
2022-12-11T05:50:00.272Z,92.9
2022-12-11T06:00:00.264Z,93.0
2022-12-11T06:10:00.387Z,93.3
2022-12-11T06:20:01.249Z,94.1
2022-12-11T06:30:01.178Z,95.4
2022-12-11T06:40:00.518Z,95.3
2022-12-11T06:50:00.613Z,94.7
2022-12-11T07:00:00.358Z,94.7
2022-12-11T07:10:07.321Z,94.0
2022-12-11T07:20:00.238Z,93.3
2022-12-11T07:30:00.241Z,93.1
2022-12-11T07:40:00.294Z,92.7
2022-12-11T07:50:00.218Z,92.5
2022-12-11T08:00:00.283Z,92.1
2022-12-11T08:10:00.296Z,91.6
2022-12-11T08:20:00.258Z,91.0
2022-12-11T08:30:00.229Z,90.7
2022-12-11T08:40:00.238Z,91.5
2022-12-11T08:50:00.270Z,90.3
2022-12-11T09:00:00.429Z,91.0
2022-12-11T09:10:00.493Z,90.1
2022-12-11T09:20:00.722Z,90.6
2022-12-11T09:30:00.618Z,91.2
2022-12-11T09:40:05.736Z,90.0
2022-12-11T09:50:01.081Z,90.1
2022-12-11T10:00:04.816Z,89.8
2022-12-11T10:10:00.592Z,90.0
2022-12-11T10:20:00.270Z,89.4
2022-12-11T10:30:00.236Z,90.3
2022-12-11T10:40:00.307Z,90.3
2022-12-11T10:50:00.235Z,89.7
2022-12-11T11:00:00.268Z,90.2
2022-12-11T11:10:00.245Z,89.6
2022-12-11T11:20:00.223Z,90.1
2022-12-11T11:30:00.223Z,89.1
2022-12-11T11:40:00.272Z,88.2
2022-12-11T11:50:00.267Z,89.3
2022-12-11T12:00:00.249Z,88.9
2022-12-11T12:10:00.403Z,88.2
2022-12-11T12:20:00.235Z,88.3
2022-12-11T12:30:00.248Z,87.1
2022-12-11T12:40:00.282Z,87.5
2022-12-11T12:50:00.215Z,85.5
2022-12-11T13:00:00.332Z,85.7
2022-12-11T13:10:00.246Z,85.2
2022-12-11T13:20:00.232Z,84.2
2022-12-11T13:30:00.303Z,84.7
2022-12-11T13:40:00.332Z,84.2
2022-12-11T13:50:00.391Z,83.7
2022-12-11T14:00:00.638Z,84.0
2022-12-11T14:10:00.562Z,84.6
2022-12-11T14:20:00.410Z,84.5
2022-12-11T14:30:00.410Z,84.5
2022-12-11T14:40:00.508Z,84.3
2022-12-11T14:50:00.527Z,84.5
2022-12-11T15:00:00.387Z,85.6
2022-12-11T15:10:00.263Z,85.3
2022-12-11T15:20:00.219Z,85.6
2022-12-11T15:30:00.236Z,85.0
2022-12-11T15:40:00.259Z,85.6
2022-12-11T15:50:00.263Z,85.0
2022-12-11T16:00:00.410Z,83.7
2022-12-11T16:10:00.390Z,85.0
2022-12-11T16:20:00.215Z,84.2
2022-12-11T16:30:00.249Z,84.2
2022-12-11T16:40:00.434Z,84.1
2022-12-11T16:50:00.243Z,83.6
2022-12-11T17:10:00.313Z,83.2
2022-12-11T17:20:00.219Z,83.4
2022-12-11T17:30:00.237Z,82.5
2022-12-11T17:40:00.264Z,81.0
2022-12-11T17:50:00.230Z,81.8
2022-12-11T18:00:00.300Z,80.5
2022-12-11T18:10:00.240Z,81.5
2022-12-11T18:20:00.290Z,81.9
2022-12-11T18:30:00.260Z,84.0
2022-12-11T18:40:00.229Z,83.5
2022-12-11T18:50:05.793Z,83.5
2022-12-11T19:00:00.412Z,82.0
2022-12-11T19:10:00.241Z,83.2
2022-12-11T19:20:18.699Z,81.0
2022-12-11T19:30:00.274Z,82.0
2022-12-11T19:40:00.255Z,81.7
2022-12-11T19:50:00.246Z,82.5
2022-12-11T20:00:00.575Z,86.1
2022-12-11T20:10:00.245Z,86.4
2022-12-11T20:20:00.218Z,85.7
2022-12-11T20:30:00.233Z,85.4
2022-12-11T20:40:00.257Z,85.6
2022-12-11T20:50:00.235Z,86.3
2022-12-11T21:00:00.319Z,86.9
2022-12-11T21:10:00.269Z,88.7
2022-12-11T21:20:00.270Z,89.7
2022-12-11T21:30:00.282Z,89.4
2022-12-11T21:40:00.276Z,90.9
2022-12-11T21:50:00.260Z,91.1
2022-12-11T22:00:00.724Z,91.1
2022-12-11T22:10:00.228Z,91.6
2022-12-11T22:20:00.264Z,91.9
2022-12-11T22:30:00.270Z,91.3
2022-12-11T22:40:00.259Z,91.3
2022-12-11T22:50:00.279Z,91.2
2022-12-11T23:00:00.301Z,91.6
2022-12-11T23:10:00.221Z,90.9
2022-12-11T23:20:00.282Z,91.0
2022-12-11T23:30:00.237Z,90.6
2022-12-11T23:40:00.242Z,89.4
2022-12-11T23:50:00.216Z,90.0
